Map

Track Data

SID SEASON NUMBER BASIN SUBBASIN NAME ISO_TIME NATURE LAT LON WMO_WIND WMO_PRES WMO_AGENCY TRACK_TYPE DIST2LAND LANDFALL IFLAG USA_AGENCY USA_ATCF_ID USA_LAT USA_LON USA_RECORD USA_STATUS USA_WIND USA_PRES USA_SSHS USA_R34_NE USA_R34_SE USA_R34_SW USA_R34_NW USA_R50_NE USA_R50_SE USA_R50_SW USA_R50_NW USA_R64_NE USA_R64_SE USA_R64_SW USA_R64_NW USA_POCI USA_ROCI USA_RMW USA_EYE TOKYO_LAT TOKYO_LON TOKYO_GRADE TOKYO_WIND TOKYO_PRES TOKYO_R50_DIR TOKYO_R50_LONG TOKYO_R50_SHORT TOKYO_R30_DIR TOKYO_R30_LONG TOKYO_R30_SHORT TOKYO_LAND CMA_LAT CMA_LON CMA_CAT CMA_WIND CMA_PRES HKO_LAT HKO_LON HKO_CAT HKO_WIND HKO_PRES NEWDELHI_LAT NEWDELHI_LON NEWDELHI_GRADE NEWDELHI_WIND NEWDELHI_PRES NEWDELHI_CI NEWDELHI_DP NEWDELHI_POCI REUNION_LAT REUNION_LON REUNION_TYPE REUNION_WIND REUNION_PRES REUNION_TNUM REUNION_CI REUNION_RMW REUNION_R34_NE REUNION_R34_SE REUNION_R34_SW REUNION_R34_NW REUNION_R50_NE REUNION_R50_SE REUNION_R50_SW REUNION_R50_NW REUNION_R64_NE REUNION_R64_SE REUNION_R64_SW REUNION_R64_NW BOM_LAT BOM_LON BOM_TYPE BOM_WIND BOM_PRES BOM_TNUM BOM_CI BOM_RMW BOM_R34_NE BOM_R34_SE BOM_R34_SW BOM_R34_NW BOM_R50_NE BOM_R50_SE BOM_R50_SW BOM_R50_NW BOM_R64_NE BOM_R64_SE BOM_R64_SW BOM_R64_NW BOM_ROCI BOM_POCI BOM_EYE BOM_POS_METHOD BOM_PRES_METHOD NADI_LAT NADI_LON NADI_CAT NADI_WIND NADI_PRES WELLINGTON_LAT WELLINGTON_LON WELLINGTON_WIND WELLINGTON_PRES DS824_LAT DS824_LON DS824_STAGE DS824_WIND DS824_PRES TD9636_LAT TD9636_LON TD9636_STAGE TD9636_WIND TD9636_PRES TD9635_LAT TD9635_LON TD9635_WIND TD9635_PRES TD9635_ROCI NEUMANN_LAT NEUMANN_LON NEUMANN_CLASS NEUMANN_WIND NEUMANN_PRES MLC_LAT MLC_LON MLC_CLASS MLC_WIND MLC_PRES USA_GUST BOM_GUST BOM_GUST_PER REUNION_GUST REUNION_GUST_PER USA_SEAHGT USA_SEARAD_NE USA_SEARAD_SE USA_SEARAD_SW USA_SEARAD_NW STORM_SPEED STORM_DIR
1881001S09084 1881 1 SI MM NOT_NAMED 1881-01-01 06:00:00 NR -9.50000 83.5000 main 1755 1755 _____O________ -1 -9.50000 83.5000 99 9.90000 1 245
1881001S09084 1881 1 SI MM NOT_NAMED 1881-01-01 09:00:00 NR -9.51691 83.4670 main 1755 1753 _____P________ -1 -9.51691 83.4670 99 1 242
1881001S09084 1881 1 SI MM NOT_NAMED 1881-01-01 12:00:00 NR -9.53697 83.4276 main 1753 1753 _____P________ -1 -9.53697 83.4276 99 1 241
1881001S09084 1881 1 SI MM NOT_NAMED 1881-01-01 15:00:00 NR -9.56335 83.3755 main 1764 1762 _____P________ -1 -9.56335 83.3755 99 1 242
1881001S09084 1881 1 SI MM NOT_NAMED 1881-01-01 18:00:00 NR -9.59920 83.3042 main 1762 1760 _____P________ -1 -9.59920 83.3042 99 2 244
1881001S09084 1881 1 SI MM NOT_NAMED 1881-01-01 21:00:00 NR -9.64766 83.2075 main 1760 1760 _____P________ -1 -9.64766 83.2075 99 2 243
1881001S09084 1881 1 SI MM NOT_NAMED 1881-01-02 00:00:00 NR -9.71187 83.0788 main 1769 1768 _____P________ -1 -9.71187 83.0788 99 3 243
1881001S09084 1881 1 SI MM NOT_NAMED 1881-01-02 03:00:00 NR -9.79495 82.9118 main 1777 1776 _____P________ -1 -9.79495 82.9118 99 4 243
1881001S09084 1881 1 SI MM NOT_NAMED 1881-01-02 06:00:00 NR -9.90000 82.7000 main 1785 1784 _____O________ -1 -9.90000 82.7000 99 9.90000 5 243
1881001S09084 1881 1 SI MM NOT_NAMED 1881-01-02 09:00:00 NR -10.0289 82.4394 main 1792 1792 _____P________ -1 -10.0289 82.4394 99 6 243
1881001S09084 1881 1 SI MM NOT_NAMED 1881-01-02 12:00:00 NR -10.1789 82.1362 main 1811 1810 _____P________ -1 -10.1789 82.1362 99 7 243
1881001S09084 1881 1 SI MM NOT_NAMED 1881-01-02 15:00:00 NR -10.3459 81.7987 main 1820 1820 _____P________ -1 -10.3459 81.7987 99 8 243
1881001S09084 1881 1 SI MM NOT_NAMED 1881-01-02 18:00:00 NR -10.5261 81.4356 main 1839 1839 _____P________ -1 -10.5261 81.4356 99 8 243
1881001S09084 1881 1 SI MM NOT_NAMED 1881-01-02 21:00:00 NR -10.7155 81.0556 main 1860 1860 _____P________ -1 -10.7155 81.0556 99 8 243
1881001S09084 1881 1 SI MM NOT_NAMED 1881-01-03 00:00:00 NR -10.9101 80.6672 main 1882 1882 _____P________ -1 -10.9101 80.6672 99 9 243
1881001S09084 1881 1 SI MM NOT_NAMED 1881-01-03 03:00:00 NR -11.1062 80.2791 main 1905 1905 _____P________ -1 -11.1062 80.2791 99 9 243
1881001S09084 1881 1 SI MM NOT_NAMED 1881-01-03 06:00:00 NR -11.3000 79.9000 reunion main 1928 1928 _____O________ -1 -11.3000 79.9000 99 9.90000 8 242
1881001S09084 1881 1 SI MM NOT_NAMED 1881-01-03 09:00:00 NR -11.4728 79.5616 main 1952 1952 _____P________ -1 -11.4728 79.5616 99 7 242
1881001S09084 1881 1 SI MM NOT_NAMED 1881-01-03 12:00:00 NR -11.6455 79.2270 main 1966 1966 _____P________ -1 -11.6455 79.2270 99 7 242
1881001S09084 1881 1 SI MM NOT_NAMED 1881-01-03 15:00:00 NR -11.8184 78.8962 main 1992 1992 _____P________ -1 -11.8184 78.8962 99 7 242
1881001S09084 1881 1 SI MM NOT_NAMED 1881-01-03 18:00:00 NR -11.9919 78.5693 main 2017 2017 _____P________ -1 -11.9919 78.5693 99 7 241
1881001S09084 1881 1 SI MM NOT_NAMED 1881-01-03 21:00:00 NR -12.1664 78.2462 main 2045 2045 _____P________ -1 -12.1664 78.2462 99 7 241
1881001S09084 1881 1 SI MM NOT_NAMED 1881-01-04 00:00:00 NR -12.3424 77.9269 main 2060 2060 _____P________ -1 -12.3424 77.9269 99 7 240
1881001S09084 1881 1 SI MM NOT_NAMED 1881-01-04 03:00:00 NR -12.5201 77.6115 main 2088 2088 _____P________ -1 -12.5201 77.6115 99 7 240
1881001S09084 1881 1 SI MM NOT_NAMED 1881-01-04 06:00:00 NR -12.7000 77.3000 reunion main 2115 2115 _____O________ -1 -12.7000 77.3000 99 9.90000 7 240
1881001S09084 1881 1 SI MM NOT_NAMED 1881-01-04 09:00:00 NR -12.8630 77.0106 main 2143 2143 _____P________ -1 -12.8630 77.0106 99 6 240
1881001S09084 1881 1 SI MM NOT_NAMED 1881-01-04 12:00:00 NR -13.0259 76.7281 main 2161 2142 _____P________ -1 -13.0259 76.7281 99 6 239
1881001S09084 1881 1 SI MM NOT_NAMED 1881-01-04 15:00:00 NR -13.1922 76.4475 main 2132 2103 _____P________ -1 -13.1922 76.4475 99 6 238
1881001S09084 1881 1 SI MM NOT_NAMED 1881-01-04 18:00:00 NR -13.3655 76.1639 main 2103 2069 _____P________ -1 -13.3655 76.1639 99 7 237
1881001S09084 1881 1 SI MM NOT_NAMED 1881-01-04 21:00:00 NR -13.5494 75.8724 main 2069 2030 _____P________ -1 -13.5494 75.8724 99 7 237
1881001S09084 1881 1 SI MM NOT_NAMED 1881-01-05 00:00:00 NR -13.7474 75.5680 main 2030 1987 _____P________ -1 -13.7474 75.5680 99 7 236
1881001S09084 1881 1 SI MM NOT_NAMED 1881-01-05 03:00:00 NR -13.9631 75.2456 main 1977 1938 _____P________ -1 -13.9631 75.2456 99 8 235
1881001S09084 1881 1 SI MM NOT_NAMED 1881-01-05 06:00:00 NR -14.2000 74.9000 reunion main 1938 1890 _____O________ -1 -14.2000 74.9000 99 9.90000 9 235
1881001S09084 1881 1 SI MM NOT_NAMED 1881-01-05 09:00:00 NR -14.4608 74.5007 main 1885 1837 _____P________ -1 -14.4608 74.5007 99 10 236
1881001S09084 1881 1 SI MM NOT_NAMED 1881-01-05 12:00:00 NR -14.7421 74.0764 main 1837 1785 _____P________ -1 -14.7421 74.0764 99 10 235
1881001S09084 1881 1 SI MM NOT_NAMED 1881-01-05 15:00:00 NR -15.0408 73.6340 main 1775 1722 _____P________ -1 -15.0408 73.6340 99 11 235
1881001S09084 1881 1 SI MM NOT_NAMED 1881-01-05 18:00:00 NR -15.3542 73.1808 main 1718 1656 _____P________ -1 -15.3542 73.1808 99 11 234
1881001S09084 1881 1 SI MM NOT_NAMED 1881-01-05 21:00:00 NR -15.6795 72.7236 main 1656 1605 _____P________ -1 -15.6795 72.7236 99 11 233
1881001S09084 1881 1 SI MM NOT_NAMED 1881-01-06 00:00:00 NR -16.0140 72.2696 main 1605 1553 _____P________ -1 -16.0140 72.2696 99 11 232
1881001S09084 1881 1 SI MM NOT_NAMED 1881-01-06 03:00:00 NR -16.3550 71.8260 main 1540 1489 _____P________ -1 -16.3550 71.8260 99 11 231
1881001S09084 1881 1 SI MM NOT_NAMED 1881-01-06 06:00:00 NR -16.7000 71.4000 reunion main 1489 1438 _____O________ -1 -16.7000 71.4000 99 9.90000 11 229
1881001S09084 1881 1 SI MM NOT_NAMED 1881-01-06 09:00:00 NR -17.0412 70.9981 main 1438 1385 _____P________ -1 -17.0412 70.9981 99 10 228
1881001S09084 1881 1 SI MM NOT_NAMED 1881-01-06 12:00:00 NR -17.3897 70.6089 main 1385 1345 _____P________ -1 -17.3897 70.6089 99 10 226
1881001S09084 1881 1 SI MM NOT_NAMED 1881-01-06 15:00:00 NR -17.7432 70.2333 main 1335 1293 _____P________ -1 -17.7432 70.2333 99 10 225
1881001S09084 1881 1 SI MM NOT_NAMED 1881-01-06 18:00:00 NR -18.0991 69.8725 main 1293 1245 _____P________ -1 -18.0991 69.8725 99 10 223
1881001S09084 1881 1 SI MM NOT_NAMED 1881-01-06 21:00:00 NR -18.4552 69.5275 main 1243 1205 _____P________ -1 -18.4552 69.5275 99 10 222
1881001S09084 1881 1 SI MM NOT_NAMED 1881-01-07 00:00:00 NR -18.8089 69.1997 main 1205 1169 _____P________ -1 -18.8089 69.1997 99 9 221
1881001S09084 1881 1 SI MM NOT_NAMED 1881-01-07 03:00:00 NR -19.1580 68.8901 main 1167 1132 _____P________ -1 -19.1580 68.8901 99 9 219
1881001S09084 1881 1 SI MM NOT_NAMED 1881-01-07 06:00:00 NR -19.5000 68.6000 reunion main 1132 1097 _____O________ -1 -19.5000 68.6000 99 9.90000 9 219
1881001S09084 1881 1 SI MM NOT_NAMED 1881-01-07 09:00:00 NR -19.8353 68.3142 main 1097 1074 _____P________ -1 -19.8353 68.3142 99 8 218
1881001S09084 1881 1 SI MM NOT_NAMED 1881-01-07 12:00:00 NR -20.1657 68.0483 main 1063 1042 _____P________ -1 -20.1657 68.0483 99 8 216
1881001S09084 1881 1 SI MM NOT_NAMED 1881-01-07 15:00:00 NR -20.4904 67.8010 main 1042 1021 _____P________ -1 -20.4904 67.8010 99 8 215
1881001S09084 1881 1 SI MM NOT_NAMED 1881-01-07 18:00:00 NR -20.8086 67.5710 main 1021 1001 _____P________ -1 -20.8086 67.5710 99 8 213
1881001S09084 1881 1 SI MM NOT_NAMED 1881-01-07 21:00:00 NR -21.1195 67.3571 main 1002 983 _____P________ -1 -21.1195 67.3571 99 7 212
1881001S09084 1881 1 SI MM NOT_NAMED 1881-01-08 00:00:00 NR -21.4223 67.1582 main 984 966 _____P________ -1 -21.4223 67.1582 99 7 211
1881001S09084 1881 1 SI MM NOT_NAMED 1881-01-08 03:00:00 NR -21.7161 66.9729 main 967 950 _____P________ -1 -21.7161 66.9729 99 7 210
1881001S09084 1881 1 SI MM NOT_NAMED 1881-01-08 06:00:00 NR -22.0000 66.8000 reunion main 952 936 _____O________ -1 -22.0000 66.8000 99 9.90000 6 211
1881001S09084 1881 1 SI MM NOT_NAMED 1881-01-08 09:00:00 NR -22.2710 66.6214 main 938 930 _____P________ -1 -22.2710 66.6214 99 6 211
1881001S09084 1881 1 SI MM NOT_NAMED 1881-01-08 12:00:00 NR -22.5313 66.4569 main 933 919 _____P________ -1 -22.5313 66.4569 99 6 210
1881001S09084 1881 1 SI MM NOT_NAMED 1881-01-08 15:00:00 NR -22.7833 66.3054 main 922 915 _____P________ -1 -22.7833 66.3054 99 6 208
1881001S09084 1881 1 SI MM NOT_NAMED 1881-01-08 18:00:00 NR -23.0293 66.1657 main 918 910 _____P________ -1 -23.0293 66.1657 99 6 207
1881001S09084 1881 1 SI MM NOT_NAMED 1881-01-08 21:00:00 NR -23.2717 66.0365 main 910 904 _____P________ -1 -23.2717 66.0365 99 5 205
1881001S09084 1881 1 SI MM NOT_NAMED 1881-01-09 00:00:00 NR -23.5127 65.9167 main 908 907 _____P________ -1 -23.5127 65.9167 99 5 204
1881001S09084 1881 1 SI MM NOT_NAMED 1881-01-09 03:00:00 NR -23.7547 65.8049 main 911 906 _____P________ -1 -23.7547 65.8049 99 5 202
1881001S09084 1881 1 SI MM NOT_NAMED 1881-01-09 06:00:00 NR -24.0000 65.7000 reunion main 911 906 _____O________ -1 -24.0000 65.7000 99 9.90000 6 201
1881001S09084 1881 1 SI MM NOT_NAMED 1881-01-09 09:00:00 NR -24.2807 65.5805 main 916 911 _____P________ -1 -24.2807 65.5805 99 6 201
1881001S09084 1881 1 SI MM NOT_NAMED 1881-01-09 12:00:00 NR -24.5664 65.4680 main 922 913 _____P________ -1 -24.5664 65.4680 99 6 199
1881001S09084 1881 1 SI MM NOT_NAMED 1881-01-09 15:00:00 NR -24.8519 65.3634 main 929 921 _____P________ -1 -24.8519 65.3634 99 6 198
1881001S09084 1881 1 SI MM NOT_NAMED 1881-01-09 18:00:00 NR -25.1323 65.2679 main 932 930 _____P________ -1 -25.1323 65.2679 99 6 197
1881001S09084 1881 1 SI MM NOT_NAMED 1881-01-09 21:00:00 NR -25.4024 65.1827 main 942 940 _____P________ -1 -25.4024 65.1827 99 5 195
1881001S09084 1881 1 SI MM NOT_NAMED 1881-01-10 00:00:00 NR -25.6571 65.1088 main 953 953 _____P________ -1 -25.6571 65.1088 99 5 194
1881001S09084 1881 1 SI MM NOT_NAMED 1881-01-10 03:00:00 NR -25.8913 65.0475 main 959 959 _____P________ -1 -25.8913 65.0475 99 5 192
1881001S09084 1881 1 SI MM NOT_NAMED 1881-01-10 06:00:00 NR -26.1000 65.0000 reunion main 972 972 _____O________ -1 -26.1000 65.0000 99 9.90000 4 190
1881001S09084 1881 1 SI MM NOT_NAMED 1881-01-10 09:00:00 NR -26.2795 64.9669 main 986 986 _____P________ -1 -26.2795 64.9669 99 3 185
1881001S09084 1881 1 SI MM NOT_NAMED 1881-01-10 12:00:00 NR -26.4322 64.9470 main 986 986 _____P________ -1 -26.4322 64.9470 99 3 182
1881001S09084 1881 1 SI MM NOT_NAMED 1881-01-10 15:00:00 NR -26.5619 64.9385 main 1000 1000 _____P________ -1 -26.5619 64.9385 99 2 183
1881001S09084 1881 1 SI MM NOT_NAMED 1881-01-10 18:00:00 NR -26.6725 64.9393 main 1008 1008 _____P________ -1 -26.6725 64.9393 99 2 0
1881001S09084 1881 1 SI MM NOT_NAMED 1881-01-10 21:00:00 NR -26.7678 64.9478 main 1015 1015 _____P________ -1 -26.7678 64.9478 99 2 0
1881001S09084 1881 1 SI MM NOT_NAMED 1881-01-11 00:00:00 NR -26.8516 64.9620 main 1030 1030 _____P________ -1 -26.8516 64.9620 99 2 169
1881001S09084 1881 1 SI MM NOT_NAMED 1881-01-11 03:00:00 NR -26.9277 64.9800 main 1030 1030 _____P________ -1 -26.9277 64.9800 99 2 166
1881001S09084 1881 1 SI MM NOT_NAMED 1881-01-11 06:00:00 NR -27.0000 65.0000 reunion main 1038 _____O________ -1 -27.0000 65.0000 99 9.90000 1 0

About IBTrACS Database

This database is a web-friendly format of International Best Track Archive for Climate Stewardship (IBTrACS), a global best track data archive curated by NOAA dating back to 1842.

Updated: 2021-12-06